Time;durP1;ratioP1;P1;durP2;ratioP2;P2;SDS_P1;SDS_P2;PMS_P1;PMS_P2;Temp;Humidity;BMP_temperature;BMP_pressure;BME280_temperature;BME280_humidity;BME280_pressure;Samples;Min_cycle;Max_cycle;Signal;HPM_P1;HPM_P2
2022/04/07 00:00:16;;;;;;;2.90;1.75;;;;;;;13.69;58.70;99175.06;4936149;28;123840;-71
2022/04/07 00:02:43;;;;;;;3.92;1.50;;;;;;;13.71;58.68;99162.50;4933473;28;124635;-70
2022/04/07 00:05:11;;;;;;;2.97;1.52;;;;;;;13.72;58.59;99169.47;4957747;28;113186;-70
2022/04/07 00:07:38;;;;;;;2.53;1.30;;;;;;;13.73;58.56;99155.22;4939796;28;112878;-70
2022/04/07 00:10:06;;;;;;;3.13;1.20;;;;;;;13.75;58.52;99147.94;4934090;28;124379;-70
2022/04/07 00:12:33;;;;;;;3.13;1.17;;;;;;;13.75;58.49;99155.94;4938330;28;124505;-71
2022/04/07 00:15:01;;;;;;;3.55;1.20;;;;;;;13.76;58.35;99149.63;4958274;28;113457;-72
2022/04/07 00:17:28;;;;;;;2.22;1.45;;;;;;;13.77;58.41;99146.00;4951799;28;112810;-69
2022/04/07 00:19:55;;;;;;;1.77;1.15;;;;;;;13.77;58.38;99140.69;4941257;28;123949;-69
2022/04/07 00:22:22;;;;;;;1.80;1.05;;;;;;;13.77;58.35;99130.03;4931377;28;123862;-68
2022/04/07 00:24:49;;;;;;;1.65;0.95;;;;;;;13.78;58.20;99121.06;4937378;28;114292;-68
2022/04/07 00:27:17;;;;;;;4.68;1.08;;;;;;;13.78;58.17;99121.06;4939315;28;114013;-68
2022/04/07 00:29:44;;;;;;;3.97;1.20;;;;;;;13.78;57.94;99115.72;4949137;28;122868;-69
2022/04/07 00:32:12;;;;;;;4.07;1.10;;;;;;;13.77;57.90;99119.38;4937972;28;124497;-69
2022/04/07 00:34:39;;;;;;;2.20;1.02;;;;;;;13.78;57.91;99115.72;4938002;28;114928;-69
2022/04/07 00:37:06;;;;;;;2.42;1.02;;;;;;;13.77;57.85;99108.75;4935245;28;113329;-69
2022/04/07 00:39:34;;;;;;;2.83;1.10;;;;;;;13.76;57.68;99107.03;4951604;28;123886;-68
2022/04/07 00:42:01;;;;;;;3.47;1.02;;;;;;;13.76;57.83;99095.56;4929825;28;124395;-69
2022/04/07 00:44:29;;;;;;;1.90;1.13;;;;;;;13.75;57.82;99089.41;4943202;28;115714;-70
2022/04/07 00:46:56;;;;;;;2.72;0.90;;;;;;;13.75;57.58;99099.19;4944901;28;114951;-71
2022/04/07 00:49:23;;;;;;;3.15;0.82;;;;;;;13.74;57.73;99082.38;4942880;28;123900;-71
2022/04/07 00:51:50;;;;;;;4.35;1.00;;;;;;;13.73;57.66;99075.41;4946668;28;124280;-70
2022/04/07 00:54:18;;;;;;;2.83;1.00;;;;;;;13.71;57.63;99061.41;4938013;28;114896;-70
2022/04/07 00:56:45;;;;;;;6.75;1.05;;;;;;;13.70;57.63;99054.38;4958270;28;114367;-70
2022/04/07 00:59:16;;;;;;;3.33;1.10;;;;;;;13.70;57.71;99059.69;4936021;28;124152;-68
2022/04/07 01:01:45;;;;;;;2.67;1.02;;;;;;;13.69;57.61;99060.66;4934293;28;124027;-68
2022/04/07 01:04:14;;;;;;;4.05;1.15;;;;;;;13.70;57.59;99043.72;4934687;28;114433;-68
2022/04/07 01:06:47;;;;;;;3.60;1.10;;;;;;;13.71;57.72;99042.78;4935246;28;114124;-68
2022/04/07 01:09:15;;;;;;;4.53;1.15;;;;;;;13.72;57.60;99041.78;4937831;28;124335;-68
2022/04/07 01:11:44;;;;;;;4.88;1.25;;;;;;;13.73;57.60;99040.81;4937906;28;123317;-68
2022/04/07 01:14:12;;;;;;;3.75;1.00;;;;;;;13.72;57.42;99036.44;4938280;28;114271;-68
2022/04/07 01:16:40;;;;;;;6.20;0.90;;;;;;;13.72;57.52;99035.63;4943945;28;114121;-68
2022/04/07 01:19:07;;;;;;;3.78;1.35;;;;;;;13.70;57.57;99022.44;4943395;28;124045;-69
2022/04/07 01:21:36;;;;;;;3.95;1.10;;;;;;;13.69;57.55;99031.38;4941660;28;123656;-68
2022/04/07 01:24:06;;;;;;;5.43;1.00;;;;;;;13.69;57.53;99025.22;4944950;28;114150;-68
2022/04/07 01:26:38;;;;;;;3.72;1.33;;;;;;;13.68;57.47;99013.75;4953644;28;114274;-68
2022/04/07 01:29:07;;;;;;;4.45;1.30;;;;;;;13.68;57.60;99000.47;4957512;28;124024;-68
2022/04/07 01:31:35;;;;;;;5.03;1.10;;;;;;;13.68;57.60;99005.78;4937209;28;122877;-70
2022/04/07 01:34:05;;;;;;;4.82;1.20;;;;;;;13.66;57.50;99009.56;4944605;28;115138;-70
2022/04/07 01:36:37;;;;;;;8.73;1.15;;;;;;;13.63;57.50;99000.84;4947442;28;113748;-70
2022/04/07 01:39:07;;;;;;;3.67;1.30;;;;;;;13.63;57.49;99014.16;4945982;28;124108;-70
2022/04/07 01:41:36;;;;;;;3.22;1.10;;;;;;;13.62;57.61;98999.19;4938262;28;123805;-70
2022/04/07 01:44:04;;;;;;;4.80;1.30;;;;;;;13.61;57.62;98991.31;4940063;28;114199;-71
2022/04/07 01:46:33;;;;;;;6.25;1.48;;;;;;;13.61;57.62;98991.31;4931662;28;113791;-70
2022/04/07 01:49:02;;;;;;;4.03;1.20;;;;;;;13.61;57.65;98981.53;4940166;28;124037;-70
2022/04/07 01:51:30;;;;;;;6.25;1.35;;;;;;;13.62;57.50;98971.75;4955541;28;123730;-70
2022/04/07 01:53:57;;;;;;;4.40;1.13;;;;;;;13.61;57.62;98962.91;4936878;28;114133;-70
2022/04/07 01:56:25;;;;;;;3.90;1.20;;;;;;;13.61;57.53;98970.03;4959813;28;114383;-69
2022/04/07 01:58:54;;;;;;;3.92;1.13;;;;;;;13.63;57.58;98957.44;4938539;28;124383;-70
2022/04/07 02:01:21;;;;;;;4.55;1.05;;;;;;;13.64;57.60;98959.16;4950912;28;122758;-70
2022/04/07 02:03:48;;;;;;;4.18;1.10;;;;;;;13.65;57.47;98955.50;4936379;28;114447;-70
2022/04/07 02:06:17;;;;;;;3.47;1.00;;;;;;;13.68;57.44;98955.22;4931541;28;115054;-70
2022/04/07 02:08:45;;;;;;;4.80;1.20;;;;;;;13.71;57.36;98959.44;4936051;28;124103;-69
2022/04/07 02:11:12;;;;;;;5.00;1.20;;;;;;;13.72;57.27;98946.00;4936676;28;122788;-70
2022/04/07 02:13:41;;;;;;;4.95;1.27;;;;;;;13.73;57.27;98947.69;4933087;28;114636;-70
2022/04/07 02:16:10;;;;;;;4.50;1.02;;;;;;;13.73;57.17;98926.41;4937000;28;113828;-70
2022/04/07 02:18:39;;;;;;;4.47;1.25;;;;;;;13.74;57.11;98912.13;4934066;28;124263;-70
2022/04/07 02:21:07;;;;;;;4.32;1.10;;;;;;;13.75;57.17;98916.47;4953320;28;122709;-71
2022/04/07 02:23:41;;;;;;;4.50;1.30;;;;;;;13.76;57.23;98907.50;4938418;28;115373;-71
2022/04/07 02:26:10;;;;;;;4.78;1.30;;;;;;;13.75;57.06;98913.81;4957008;28;113976;-71
2022/04/07 02:28:40;;;;;;;3.72;1.45;;;;;;;13.76;57.00;98910.16;4935678;28;124104;-69
2022/04/07 02:31:08;;;;;;;2.38;0.85;;;;;;;13.76;57.00;98902.16;4938431;28;123832;-70
2022/04/07 02:33:36;;;;;;;5.82;1.30;;;;;;;13.76;57.12;98894.19;4950665;28;114705;-70
2022/04/07 02:36:05;;;;;;;5.18;1.13;;;;;;;13.77;56.95;98890.56;4954402;28;113630;-70
2022/04/07 02:38:33;;;;;;;6.07;1.40;;;;;;;13.76;57.13;98888.03;4936601;28;124535;-70
2022/04/07 02:41:01;;;;;;;4.35;1.30;;;;;;;13.75;56.98;98887.22;4933089;28;124509;-71
2022/04/07 02:43:28;;;;;;;4.30;1.25;;;;;;;13.74;56.99;98874.88;4937828;28;113471;-71
2022/04/07 02:45:55;;;;;;;4.55;1.17;;;;;;;13.76;57.04;98886.22;4934497;28;113766;-71
2022/04/07 02:48:23;;;;;;;3.92;1.35;;;;;;;13.75;57.04;98876.56;4951262;28;123029;-71
2022/04/07 02:50:50;;;;;;;8.20;1.30;;;;;;;13.77;57.10;98876.44;4938367;28;124090;-70
2022/04/07 02:53:17;;;;;;;4.80;1.20;;;;;;;13.78;57.05;98870.13;4942114;28;114512;-70
2022/04/07 02:55:44;;;;;;;6.88;1.35;;;;;;;13.78;56.93;98870.94;4940639;28;114681;-71
2022/04/07 02:58:11;;;;;;;8.10;1.50;;;;;;;13.78;56.94;98865.63;4932793;28;124890;-70
2022/04/07 03:00:39;;;;;;;6.15;1.15;;;;;;;13.79;56.78;98856.69;4937645;28;123874;-70
2022/04/07 03:03:07;;;;;;;6.25;1.13;;;;;;;13.78;56.80;98854.97;4942353;28;114150;-70
2022/04/07 03:05:34;;;;;;;4.03;1.30;;;;;;;13.79;56.80;98846.03;4934073;28;114393;-71
2022/04/07 03:08:01;;;;;;;5.35;1.35;;;;;;;13.77;56.87;98834.69;4936251;28;124050;-70
2022/04/07 03:10:29;;;;;;;4.45;1.15;;;;;;;13.78;56.67;98828.38;4950359;28;122634;-70
2022/04/07 03:12:56;;;;;;;5.70;1.20;;;;;;;13.78;56.76;98822.22;4938753;28;115740;-70
2022/04/07 03:15:23;;;;;;;9.30;1.45;;;;;;;13.78;56.66;98817.72;4954025;28;114520;-70
2022/04/07 03:17:50;;;;;;;3.85;1.50;;;;;;;13.77;56.66;98810.75;4936282;28;123884;-71
2022/04/07 03:20:18;;;;;;;7.68;1.35;;;;;;;13.77;56.65;98800.09;4933881;28;123827;-70
2022/04/07 03:22:45;;;;;;;5.20;1.33;;;;;;;13.79;56.61;98802.63;4938447;28;114019;-70
2022/04/07 03:25:12;;;;;;;5.25;1.08;;;;;;;13.79;56.49;98803.47;4953562;28;112910;-70
2022/04/07 03:27:39;;;;;;;5.13;1.35;;;;;;;13.81;56.52;98785.53;4938085;28;124237;-70
2022/04/07 03:30:07;;;;;;;5.85;1.38;;;;;;;13.85;56.47;98782.59;4934997;28;123815;-70
2022/04/07 03:32:34;;;;;;;6.25;1.42;;;;;;;13.87;56.46;98777.97;4940406;28;114101;-71
2022/04/07 03:35:02;;;;;;;4.32;1.50;;;;;;;13.90;56.35;98777.69;4935104;28;114754;-70
2022/04/07 03:37:29;;;;;;;5.35;1.33;;;;;;;13.92;56.36;98763.25;4934855;28;123570;-70
2022/04/07 03:39:56;;;;;;;3.33;1.10;;;;;;;13.95;56.35;98770.13;4933302;28;123956;-70
2022/04/07 03:42:23;;;;;;;5.60;1.27;;;;;;;13.96;56.30;98766.50;4939661;28;113218;-70
2022/04/07 03:44:50;;;;;;;4.28;1.00;;;;;;;13.97;56.08;98752.19;4935095;28;113987;-70
2022/04/07 03:47:17;;;;;;;5.43;1.50;;;;;;;14.00;56.06;98743.91;4929876;28;123843;-70
2022/04/07 03:49:45;;;;;;;4.78;1.10;;;;;;;14.01;56.05;98751.78;4952360;28;123059;-70
2022/04/07 03:52:12;;;;;;;7.75;1.63;;;;;;;14.03;55.90;98735.63;4950164;28;114398;-70
2022/04/07 03:54:39;;;;;;;4.68;1.17;;;;;;;14.04;55.86;98737.31;4936130;28;114048;-70
2022/04/07 03:57:06;;;;;;;7.28;1.48;;;;;;;14.06;55.72;98745.16;4937539;28;124685;-70
2022/04/07 03:59:38;;;;;;;4.50;1.27;;;;;;;14.07;55.61;98753.03;4947972;28;124693;-70
2022/04/07 04:02:06;;;;;;;4.47;1.20;;;;;;;14.07;55.73;98726.41;4945212;28;115610;-70
2022/04/07 04:04:34;;;;;;;3.90;1.10;;;;;;;14.09;55.69;98724.44;4933052;28;114788;-70
2022/04/07 04:07:01;;;;;;;7.57;1.25;;;;;;;14.11;55.51;98729.59;4951602;28;124642;-71
2022/04/07 04:09:28;;;;;;;7.50;1.13;;;;;;;14.11;55.48;98706.50;4938920;28;123289;-70
2022/04/07 04:11:55;;;;;;;6.85;1.33;;;;;;;14.12;55.61;98713.47;4931915;28;114352;-70
2022/04/07 04:14:22;;;;;;;5.80;1.30;;;;;;;14.11;55.56;98695.84;4949883;28;113314;-70
2022/04/07 04:16:50;;;;;;;5.00;1.42;;;;;;;14.13;55.41;98677.06;4937286;28;123751;-70
2022/04/07 04:19:17;;;;;;;4.00;1.10;;;;;;;14.12;55.49;98681.53;4939253;28;123797;-70
2022/04/07 04:21:44;;;;;;;4.75;1.27;;;;;;;14.11;55.42;98669.22;4939947;28;115409;-70
2022/04/07 04:24:12;;;;;;;6.40;1.20;;;;;;;14.12;55.31;98665.56;4934632;28;113954;-70
2022/04/07 04:26:39;;;;;;;5.35;1.13;;;;;;;14.12;55.40;98628.28;4937201;28;124674;-70
2022/04/07 04:29:07;;;;;;;7.15;1.20;;;;;;;14.14;55.21;98631.66;4944013;28;123955;-70
2022/04/07 04:31:34;;;;;;;4.88;1.05;;;;;;;14.14;55.19;98609.53;4949617;28;113403;-70
2022/04/07 04:34:01;;;;;;;5.13;1.40;;;;;;;14.13;55.17;98598.03;4934240;28;114269;-70
2022/04/07 04:36:28;;;;;;;5.63;1.33;;;;;;;14.13;55.03;98603.38;4947149;28;122909;-70
2022/04/07 04:38:56;;;;;;;4.85;1.35;;;;;;;14.14;55.08;98599.69;4936255;28;124482;-69
2022/04/07 04:41:23;;;;;;;3.13;1.20;;;;;;;14.15;54.96;98606.72;4951981;28;113073;-69
2022/04/07 04:43:50;;;;;;;3.08;1.00;;;;;;;14.15;54.86;98592.56;4956109;28;112235;-69
2022/04/07 04:46:17;;;;;;;4.57;1.08;;;;;;;14.15;55.03;98590.75;4931133;28;124037;-69
2022/04/07 04:48:45;;;;;;;4.38;0.90;;;;;;;14.16;54.88;98571.09;4932925;28;123406;-69
2022/04/07 04:51:12;;;;;;;4.70;1.23;;;;;;;14.16;54.93;98581.75;4945975;28;114018;-69
2022/04/07 04:53:39;;;;;;;2.72;0.90;;;;;;;14.17;54.95;98578.13;4941132;28;114806;-69
2022/04/07 04:56:06;;;;;;;1.42;0.68;;;;;;;14.18;54.95;98565.63;4938862;28;123829;-69
2022/04/07 04:58:33;;;;;;;4.97;1.13;;;;;;;14.19;54.89;98564.66;4940821;28;124097;-70
2022/04/07 05:01:01;;;;;;;2.78;0.82;;;;;;;14.19;54.83;98557.50;4940409;28;114282;-72
2022/04/07 05:03:29;;;;;;;3.58;1.00;;;;;;;14.20;54.72;98545.88;4944101;28;114061;-73
2022/04/07 05:05:56;;;;;;;5.13;1.20;;;;;;;14.20;55.00;98550.34;4940550;28;124298;-73
2022/04/07 05:08:23;;;;;;;3.50;0.95;;;;;;;14.19;55.07;98546.88;4935361;28;123772;-73
2022/04/07 05:10:50;;;;;;;2.90;0.95;;;;;;;14.18;55.01;98542.53;4942109;28;113314;-73
2022/04/07 05:13:17;;;;;;;2.53;0.90;;;;;;;14.14;55.22;98519.84;4934881;28;114203;-73
2022/04/07 05:15:45;;;;;;;2.45;1.10;;;;;;;14.10;55.20;98513.16;4929793;28;123891;-73
2022/04/07 05:18:12;;;;;;;4.03;1.40;;;;;;;14.06;55.44;98506.44;4935097;28;124021;-73
2022/04/07 05:20:39;;;;;;;4.20;1.10;;;;;;;14.01;55.43;98503.38;4932472;28;114065;-73
2022/04/07 05:23:06;;;;;;;3.83;1.52;;;;;;;13.97;55.67;98502.03;4936160;28;113898;-72
2022/04/07 05:25:33;;;;;;;2.35;1.20;;;;;;;13.93;55.66;98512.13;4950592;28;123903;-72
2022/04/07 05:28:00;;;;;;;1.52;1.10;;;;;;;13.90;55.73;98506.25;4940635;28;123955;-72
2022/04/07 05:30:28;;;;;;;1.35;1.00;;;;;;;13.88;55.96;98513.53;4936559;28;114032;-72
2022/04/07 05:32:55;;;;;;;3.10;1.10;;;;;;;13.83;56.01;98492.72;4942529;28;114390;-72
2022/04/07 05:35:26;;;;;;;3.45;1.10;;;;;;;13.81;56.30;98482.22;4939819;28;125049;-72
2022/04/07 05:38:00;;;;;;;2.38;0.98;;;;;;;13.79;56.36;98486.84;4938598;28;123729;-72
2022/04/07 05:40:27;;;;;;;1.98;1.10;;;;;;;13.77;56.51;98475.53;4935519;28;115843;-72
2022/04/07 05:42:55;;;;;;;2.00;1.10;;;;;;;13.75;56.46;98456.22;4951835;28;113963;-72
2022/04/07 05:45:22;;;;;;;2.65;1.30;;;;;;;13.76;56.60;98457.88;4930613;28;124121;-72
2022/04/07 05:47:49;;;;;;;2.95;1.42;;;;;;;13.75;56.68;98434.94;4945600;28;123136;-72
2022/04/07 05:50:17;;;;;;;3.75;1.80;;;;;;;13.74;56.55;98453.69;4929303;28;114268;-72
2022/04/07 05:52:44;;;;;;;4.75;1.95;;;;;;;13.74;56.68;98449.19;4940294;28;113901;-72
2022/04/07 05:55:12;;;;;;;4.78;1.88;;;;;;;13.72;56.85;98456.50;4936788;28;124643;-72
2022/04/07 05:57:39;;;;;;;3.88;1.85;;;;;;;13.69;56.83;98424.88;4938711;28;123698;-73
2022/04/07 06:00:10;;;;;;;5.68;1.98;;;;;;;13.65;56.99;98423.50;4942348;28;114900;-72
2022/04/07 06:02:39;;;;;;;2.45;1.60;;;;;;;13.62;57.09;98414.00;4948576;28;113703;-72
2022/04/07 06:05:07;;;;;;;6.10;2.13;;;;;;;13.60;57.25;98417.81;4939411;28;124030;-73
2022/04/07 06:07:35;;;;;;;2.47;1.63;;;;;;;13.57;57.36;98418.09;4939461;28;123828;-72
2022/04/07 06:10:04;;;;;;;4.60;1.77;;;;;;;13.55;57.38;98401.44;4939100;28;114747;-72
2022/04/07 06:12:31;;;;;;;2.97;1.60;;;;;;;13.51;57.50;98386.78;4942918;28;113349;-72
2022/04/07 06:14:58;;;;;;;4.90;1.80;;;;;;;13.50;57.54;98382.44;4961437;28;123428;-73
2022/04/07 06:17:36;;;;;;;4.65;1.60;;;;;;;13.48;57.58;98379.09;4940070;28;124723;-73
2022/04/07 06:20:06;;;;;;;3.90;1.40;;;;;;;13.46;57.67;98370.41;4939108;28;114998;-74
2022/04/07 06:22:34;;;;;;;2.63;1.33;;;;;;;13.44;57.66;98374.06;4934901;28;114305;-73
2022/04/07 06:25:01;;;;;;;5.55;1.50;;;;;;;13.43;57.59;98361.75;4941579;28;124269;-73
2022/04/07 06:27:39;;;;;;;3.15;1.17;;;;;;;13.41;57.90;98347.78;4941670;28;124278;-73
2022/04/07 06:30:11;;;;;;;4.93;1.08;;;;;;;13.40;57.87;98347.91;4947366;28;115728;-73
2022/04/07 06:32:39;;;;;;;3.83;1.30;;;;;;;13.39;57.97;98328.50;4943242;28;114110;-74
2022/04/07 06:35:08;;;;;;;5.18;1.30;;;;;;;13.37;58.13;98338.44;4938627;28;124190;-74
2022/04/07 06:37:52;;;;;;;3.10;1.27;;;;;;;13.36;57.94;98328.78;4945200;28;123906;-73
2022/04/07 06:40:24;;;;;;;3.15;1.05;;;;;;;13.36;58.09;98312.81;4935571;28;114220;-75
2022/04/07 06:42:55;;;;;;;3.03;1.25;;;;;;;13.34;58.08;98314.78;4940387;28;114371;-74
2022/04/07 06:45:25;;;;;;;2.85;1.10;;;;;;;13.32;58.27;98311.44;4932708;28;123980;-74
2022/04/07 06:47:53;;;;;;;4.38;1.15;;;;;;;13.30;58.04;98313.44;4931915;28;124167;-74
2022/04/07 06:50:21;;;;;;;3.80;1.00;;;;;;;13.30;58.35;98308.09;4931612;28;114893;-75
2022/04/07 06:52:48;;;;;;;3.90;1.13;;;;;;;13.31;58.22;98299.13;4931717;28;114299;-75
2022/04/07 06:55:16;;;;;;;4.35;0.90;;;;;;;13.30;58.51;98281.53;4946716;28;124042;-74
2022/04/07 06:57:51;;;;;;;4.22;1.10;;;;;;;13.29;58.37;98273.66;4932060;28;124231;-75
2022/04/07 07:00:29;;;;;;;3.17;1.02;;;;;;;13.29;58.45;98274.50;4947143;28;114573;-73
2022/04/07 07:03:20;;;;;;;2.50;0.90;;;;;;;13.29;58.30;98269.16;4949474;28;112936;-73
2022/04/07 07:05:47;;;;;;;1.88;0.80;;;;;;;13.28;58.37;98256.88;4949443;28;123104;-74
2022/04/07 07:08:19;;;;;;;2.40;0.95;;;;;;;13.26;58.54;98250.88;4953202;28;122819;-74
2022/04/07 07:10:48;;;;;;;3.03;0.90;;;;;;;13.27;58.50;98249.06;4933059;28;114756;-74
2022/04/07 07:13:17;;;;;;;4.00;0.93;;;;;;;13.26;58.68;98226.97;4948556;28;113964;-74
2022/04/07 07:15:51;;;;;;;3.08;1.05;;;;;;;13.27;58.69;98223.31;4941351;28;124002;-75
2022/04/07 07:18:18;;;;;;;3.17;0.80;;;;;;;13.26;58.64;98213.69;4956751;28;122614;-76
2022/04/07 07:20:46;;;;;;;4.82;1.00;;;;;;;13.25;58.55;98209.34;4938952;28;114409;-75
2022/04/07 07:23:15;;;;;;;2.65;0.90;;;;;;;13.25;58.63;98209.34;4941587;28;115452;-74
2022/04/07 07:25:43;;;;;;;2.60;0.98;;;;;;;13.23;58.69;98192.69;4945705;28;124652;-75
2022/04/07 07:28:10;;;;;;;4.35;1.00;;;;;;;13.21;58.86;98184.88;4956543;28;122926;-74
2022/04/07 07:30:37;;;;;;;3.92;0.80;;;;;;;13.21;58.94;98170.75;4942755;28;113211;-74
2022/04/07 07:33:05;;;;;;;1.70;0.75;;;;;;;13.22;58.97;98159.13;4943029;28;114942;-75
2022/04/07 07:35:32;;;;;;;1.45;0.80;;;;;;;13.21;59.00;98138.88;4944234;28;123887;-75
2022/04/07 07:38:01;;;;;;;4.55;0.75;;;;;;;13.21;59.12;98125.56;4953039;28;124370;-75
2022/04/07 07:40:32;;;;;;;3.45;1.02;;;;;;;13.22;59.25;98108.63;4942323;28;114555;-75
2022/04/07 07:43:01;;;;;;;2.70;0.95;;;;;;;13.21;59.33;98106.97;4936735;28;113993;-75
2022/04/07 07:45:32;;;;;;;3.10;0.75;;;;;;;13.21;59.29;98102.47;4942064;28;123982;-75
2022/04/07 07:48:27;;;;;;;2.70;0.93;;;;;;;13.23;59.24;98120.94;4940147;28;123752;-76
2022/04/07 07:50:55;;;;;;;2.67;0.90;;;;;;;13.21;59.22;98155.63;4940134;28;113600;-75
2022/04/07 07:53:22;;;;;;;1.95;0.93;;;;;;;13.20;59.48;98179.69;4936930;28;114000;-75
2022/04/07 07:55:49;;;;;;;1.48;0.60;;;;;;;13.18;58.84;98202.94;4942699;28;124884;-76
2022/04/07 07:58:16;;;;;;;2.80;0.70;;;;;;;13.03;58.06;98153.00;4939352;28;124070;-78
2022/04/07 08:00:44;;;;;;;3.08;0.60;;;;;;;12.80;57.79;98252.69;4938739;28;114032;-78
2022/04/07 08:03:11;;;;;;;0.57;0.40;;;;;;;12.53;56.95;98209.19;4932952;28;114346;-78
2022/04/07 08:05:46;;;;;;;1.35;0.50;;;;;;;12.24;57.17;98263.22;4943244;28;124129;-79
2022/04/07 08:08:13;;;;;;;2.70;0.60;;;;;;;12.00;57.33;98276.13;4951558;28;124645;-79
2022/04/07 08:10:50;;;;;;;3.60;0.63;;;;;;;11.77;57.33;98280.81;4945210;28;115947;-81
2022/04/07 08:13:18;;;;;;;1.48;0.90;;;;;;;11.59;57.65;98283.34;4932454;28;115242;-78
2022/04/07 08:15:45;;;;;;;3.40;0.80;;;;;;;11.41;57.72;98284.00;4930889;28;124073;-76
2022/04/07 08:18:24;;;;;;;2.97;0.70;;;;;;;11.23;57.92;98267.97;4931240;28;124534;-79
2022/04/07 08:20:51;;;;;;;1.27;0.70;;;;;;;11.13;57.92;98271.56;4930719;28;114561;-77
2022/04/07 08:23:18;;;;;;;3.15;1.00;;;;;;;11.01;58.04;98268.19;4949350;28;114056;-78
2022/04/07 08:25:45;;;;;;;3.83;0.90;;;;;;;10.91;58.27;98273.47;4949480;28;124740;-79
2022/04/07 08:28:12;;;;;;;2.50;0.85;;;;;;;10.88;58.71;98252.53;4954168;28;124286;-79
2022/04/07 08:30:40;;;;;;;1.92;0.90;;;;;;;10.85;58.86;98247.50;4968757;28;114258;-79
2022/04/07 08:33:07;;;;;;;1.88;0.90;;;;;;;10.83;59.08;98244.16;4951771;28;114361;-79
2022/04/07 08:35:34;;;;;;;3.53;1.00;;;;;;;10.83;59.00;98244.16;4968578;28;123383;-77
2022/04/07 08:38:04;;;;;;;1.35;0.90;;;;;;;10.86;58.98;98259.78;4947835;28;123576;-79
2022/04/07 08:40:34;;;;;;;2.05;1.00;;;;;;;10.88;59.39;98257.84;4950598;28;114366;-78
2022/04/07 08:43:02;;;;;;;2.05;0.90;;;;;;;10.92;59.45;98253.94;4951845;28;114086;-78
2022/04/07 08:45:29;;;;;;;2.65;1.10;;;;;;;10.97;59.31;98235.84;4950514;28;124502;-79
2022/04/07 08:47:57;;;;;;;2.30;1.00;;;;;;;11.02;59.84;98233.63;4951371;28;123665;-78
2022/04/07 08:50:26;;;;;;;3.83;0.95;;;;;;;11.09;59.66;98250.66;4944194;28;114748;-78
2022/04/07 08:52:54;;;;;;;3.72;0.80;;;;;;;11.17;59.69;98246.47;4942960;28;113985;-78
2022/04/07 08:55:21;;;;;;;1.38;0.70;;;;;;;11.24;59.97;98237.00;4949258;28;124623;-77
2022/04/07 08:57:48;;;;;;;2.63;0.80;;;;;;;11.31;60.00;98227.53;4950141;28;124183;-77
2022/04/07 09:00:16;;;;;;;3.78;1.00;;;;;;;11.36;59.91;98227.97;4948602;28;115299;-77
2022/04/07 09:02:43;;;;;;;6.32;0.90;;;;;;;11.43;60.06;98231.72;4950760;28;115075;-76
2022/04/07 09:05:14;;;;;;;1.27;0.88;;;;;;;11.52;59.98;98229.22;4952165;28;123838;-76
2022/04/07 09:07:45;;;;;;;1.98;0.90;;;;;;;11.61;60.03;98233.69;4952581;28;123925;-76
2022/04/07 09:10:18;;;;;;;4.55;1.08;;;;;;;11.70;60.26;98230.19;4947873;28;114100;-76
2022/04/07 09:12:45;;;;;;;2.05;0.80;;;;;;;11.80;60.19;98238.97;4946322;28;113838;-77
2022/04/07 09:15:13;;;;;;;1.67;0.93;;;;;;;11.92;60.56;98241.50;4940920;28;123158;-77
2022/04/07 09:17:55;;;;;;;2.22;0.93;;;;;;;12.05;60.87;98236.72;4952252;28;123725;-77
2022/04/07 09:20:23;;;;;;;4.53;0.90;;;;;;;12.17;60.93;98238.25;4948560;28;114116;-75
2022/04/07 09:22:58;;;;;;;3.10;0.80;;;;;;;12.27;60.57;98231.06;4950143;28;113877;-75
2022/04/07 09:25:26;;;;;;;1.48;0.88;;;;;;;12.40;60.44;98229.94;4951563;28;123887;-75
2022/04/07 09:27:57;;;;;;;2.25;0.80;;;;;;;12.54;60.72;98237.41;4949022;28;123945;-75
2022/04/07 09:30:25;;;;;;;3.30;0.80;;;;;;;12.73;60.89;98230.34;4950754;28;113021;-75
2022/04/07 09:32:52;;;;;;;3.40;0.70;;;;;;;12.87;60.79;98237.81;4951635;28;113249;-74
2022/04/07 09:35:19;;;;;;;2.55;0.95;;;;;;;13.03;60.99;98227.41;4952099;28;124508;-74
2022/04/07 09:37:47;;;;;;;4.63;1.10;;;;;;;13.21;60.91;98239.84;4970022;28;123283;-75
2022/04/07 09:40:16;;;;;;;3.78;0.77;;;;;;;13.37;60.87;98234.75;4953125;28;114425;-75
2022/04/07 09:42:44;;;;;;;3.15;0.90;;;;;;;13.50;60.71;98238.84;4954283;28;113854;-74
2022/04/07 09:45:13;;;;;;;4.97;0.93;;;;;;;13.59;60.27;98233.44;4954230;28;124224;-74
2022/04/07 09:47:44;;;;;;;4.22;0.88;;;;;;;13.66;60.06;98239.00;4951596;28;124398;-74
2022/04/07 09:50:29;;;;;;;3.65;0.80;;;;;;;13.74;59.97;98231.06;4950916;28;115515;-75
2022/04/07 09:53:05;;;;;;;1.83;0.60;;;;;;;13.87;59.99;98229.84;4953456;28;114464;-74
2022/04/07 09:55:34;;;;;;;;;;;;;;;14.02;59.98;98233.63;4952105;28;124016;-73
2022/04/07 09:58:04;;;;;;;3.38;0.90;;;;;;;14.18;59.74;98233.75;4951696;28;124656;-73
2022/04/07 10:00:31;;;;;;;2.03;0.60;;;;;;;14.29;59.59;98234.47;4951348;28;114065;-73
2022/04/07 10:02:59;;;;;;;2.30;0.82;;;;;;;14.43;59.29;98223.22;4937279;28;114066;-73
2022/04/07 10:05:28;;;;;;;3.10;0.80;;;;;;;14.53;58.91;98225.78;4948823;28;123795;-74
2022/04/07 10:07:59;;;;;;;2.80;1.08;;;;;;;14.63;58.96;98226.50;4931301;28;123619;-73
2022/04/07 10:10:26;;;;;;;4.97;0.90;;;;;;;14.75;58.56;98229.75;4939053;28;114312;-72
2022/04/07 10:12:57;;;;;;;4.10;0.80;;;;;;;14.84;58.11;98239.41;4937235;28;114917;-73
2022/04/07 10:15:25;;;;;;;4.43;0.88;;;;;;;14.90;57.49;98228.13;4938243;28;123600;-72
2022/04/07 10:17:53;;;;;;;2.47;0.80;;;;;;;14.94;57.26;98229.47;4951291;28;122817;-72
2022/04/07 10:20:33;;;;;;;7.53;0.80;;;;;;;15.04;57.18;98228.50;4936952;28;114785;-72
2022/04/07 10:23:26;;;;;;;3.38;0.82;;;;;;;15.14;57.31;98218.53;4935033;28;114012;-73
2022/04/07 10:25:56;;;;;;;2.28;0.63;;;;;;;15.23;56.59;98238.88;4933735;28;124053;-73
2022/04/07 10:28:25;;;;;;;3.00;0.70;;;;;;;15.27;56.07;98240.22;4939683;28;124470;-74
2022/04/07 10:30:54;;;;;;;1.60;0.68;;;;;;;15.29;55.82;98227.53;4939357;28;114196;-72
2022/04/07 10:34:04;;;;;;;3.83;0.82;;;;;;;15.35;55.82;98248.25;4956183;28;113309;-72
2022/04/07 10:36:38;;;;;;;4.15;0.90;;;;;;;15.43;55.53;98249.28;4946977;28;123649;-70
2022/04/07 10:39:13;;;;;;;4.85;0.80;;;;;;;15.47;55.15;98250.59;4939363;28;124399;-73
2022/04/07 10:41:46;;;;;;;1.98;0.68;;;;;;;15.52;54.75;98258.94;4948498;28;115301;-73
2022/04/07 10:44:16;;;;;;;2.25;0.60;;;;;;;15.55;54.17;98269.28;4936646;28;115443;-72
2022/04/07 10:46:44;;;;;;;2.25;0.98;;;;;;;15.57;53.66;98269.94;4935951;28;124072;-72
2022/04/07 10:49:19;;;;;;;3.92;0.73;;;;;;;15.54;53.42;98267.63;4935408;28;122722;-70
2022/04/07 10:51:58;;;;;;;2.47;0.67;;;;;;;15.46;53.29;98264.94;4954101;28;112751;-72
2022/04/07 10:54:30;;;;;;;3.63;0.85;;;;;;;15.44;52.63;98277.59;4939019;28;114077;-72
2022/04/07 10:56:59;;;;;;;4.50;0.80;;;;;;;15.47;52.77;98287.94;4938675;28;124706;-71
2022/04/07 10:59:31;;;;;;;5.30;0.88;;;;;;;15.51;52.40;98283.94;4934053;28;123847;-71
2022/04/07 11:02:05;;;;;;;2.25;0.70;;;;;;;15.56;52.10;98293.13;4941086;28;114596;-71
2022/04/07 11:04:37;;;;;;;6.05;0.95;;;;;;;15.65;52.35;98296.66;4945293;28;114217;-72
2022/04/07 11:07:04;;;;;;;4.53;1.15;;;;;;;15.77;52.29;98306.03;4942846;28;123005;-72
2022/04/07 11:09:45;;;;;;;7.55;1.00;;;;;;;15.87;51.90;98331.75;4941453;28;124201;-72
2022/04/07 11:12:24;;;;;;;6.40;0.95;;;;;;;15.86;51.03;98314.03;4941733;28;114037;-71
2022/04/07 11:14:54;;;;;;;2.83;0.75;;;;;;;15.77;50.94;98322.03;4938795;28;114222;-72
2022/04/07 11:17:28;;;;;;;6.50;1.00;;;;;;;15.73;51.14;98320.72;4939596;28;123967;-71
2022/04/07 11:20:08;;;;;;;4.95;1.20;;;;;;;15.73;51.15;98331.38;4957454;28;124671;-71
2022/04/07 11:22:53;;;;;;;6.53;1.00;;;;;;;15.71;50.95;98344.03;4936780;28;114493;-70
2022/04/07 11:25:27;;;;;;;4.05;1.10;;;;;;;15.66;50.77;98335.66;4953287;28;114110;-69
2022/04/07 11:28:12;;;;;;;5.43;0.87;;;;;;;15.56;50.69;98345.66;4933724;28;123960;-71
2022/04/07 11:30:40;;;;;;;5.00;1.20;;;;;;;15.51;50.66;98337.31;4952663;28;122850;-70
2022/04/07 11:33:26;;;;;;;5.13;0.90;;;;;;;15.44;50.70;98347.78;4934994;28;115331;-71
2022/04/07 11:36:14;;;;;;;;;;;;;;;15.40;51.44;98366.94;4940344;28;115683;-71